F\v Gure Gogoa — EAJC — position and weather

sailwx.info

Track history (hours):
 
Tides and Currents Weather Stations Pressure Air Temp Water Temp Dewpoint Dewpoint Depression Visibility Wind Speed Wind Dir Waves Ship Positions

F\v Gure Gogoa

Last reported at 2015-Mar-11 17:20 UTC. Time now 2015-Mar-31 02:04 UTC.
Position N 43°20' W 001°57'.
Warning: this ship's position is 19 days out of date.

Length 37 m.

Type: Fishing. MMSI: 224128930.

Date/timePositionNaut miles runAvg speedWind from/ knotsBaromVisibWave heightAir tempDewpointWater temp
2015-Mar-11 17:20N 43°20' W 001°57'11 0.8
2015-Mar-11 03:06N 43°18' W 002°12'1 0.6
2015-Mar-11 01:33N 43°19' W 002°11'0 0.3
2015-Mar-11 00:28N 43°20' W 002°11'0 0.4
2015-Mar-10 23:08N 43°20' W 002°11'0 0.4
2015-Mar-10 22:30N 43°20' W 002°10'5 3.3
2015-Mar-10 21:04N 43°21' W 002°17'0 0.6
2015-Mar-10 20:33N 43°21' W 002°16'1 0.7
2015-Mar-10 19:19N 43°20' W 002°15'1 0.7
2015-Mar-10 18:27N 43°20' W 002°15'3 0.1
2015-Mar-09 19:13N 43°18' W 002°12'0 0.0
2015-Mar-09 16:29N 43°18' W 002°12'  
2015-Mar-05 23:33N 43°20' W 002°10'0 0.4
2015-Mar-05 22:31N 43°20' W 002°10'5 5.4
2015-Mar-05 21:32N 43°25' W 002°10'2 1.5
2015-Mar-05 20:24N 43°23' W 002°10'  
Track history (hours):
 
Tides and Currents Weather Stations Pressure Air Temp Water Temp Dewpoint Dewpoint Depression Visibility Wind Speed Wind Dir Waves Ship Positions

F\v Gure Gogoa

Last reported at 2015-Mar-11 17:20 UTC. Time now 2015-Mar-31 02:04 UTC.
Position N 43°20' W 001°57'.
Warning: this ship's position is 19 days out of date.

Length 37 m.

Type: Fishing. MMSI: 224128930.

Date/timePositionNaut miles runAvg speedWind from/ knotsBaromVisibWave heightAir tempDewpointWater temp
2015-Mar-11 17:20N 43°20' W 001°57'11 0.8
2015-Mar-11 03:06N 43°18' W 002°12'1 0.6
2015-Mar-11 01:33N 43°19' W 002°11'0 0.3
2015-Mar-11 00:28N 43°20' W 002°11'0 0.4
2015-Mar-10 23:08N 43°20' W 002°11'0 0.4
2015-Mar-10 22:30N 43°20' W 002°10'5 3.3
2015-Mar-10 21:04N 43°21' W 002°17'0 0.6
2015-Mar-10 20:33N 43°21' W 002°16'1 0.7
2015-Mar-10 19:19N 43°20' W 002°15'1 0.7
2015-Mar-10 18:27N 43°20' W 002°15'3 0.1
2015-Mar-09 19:13N 43°18' W 002°12'0 0.0
2015-Mar-09 16:29N 43°18' W 002°12'  
2015-Mar-05 23:33N 43°20' W 002°10'0 0.4
2015-Mar-05 22:31N 43°20' W 002°10'5 5.4
2015-Mar-05 21:32N 43°25' W 002°10'2 1.5
2015-Mar-05 20:24N 43°23' W 002°10'  

Dump ship's entire track history